sensor_id;sensor_type;location;lat;lon;timestamp;P1;durP1;ratioP1;P2;durP2;ratioP2
73120;SDS011;61307;49.628;-1.624;2023-07-24T00:01:09;5.28;;;3.70;;
73120;SDS011;61307;49.628;-1.624;2023-07-24T00:03:36;6.13;;;3.47;;
73120;SDS011;61307;49.628;-1.624;2023-07-24T00:06:03;6.95;;;3.72;;
73120;SDS011;61307;49.628;-1.624;2023-07-24T00:08:31;5.90;;;3.58;;
73120;SDS011;61307;49.628;-1.624;2023-07-24T00:10:58;6.57;;;3.33;;
73120;SDS011;61307;49.628;-1.624;2023-07-24T00:13:25;5.75;;;3.47;;
73120;SDS011;61307;49.628;-1.624;2023-07-24T00:15:53;5.25;;;3.45;;
73120;SDS011;61307;49.628;-1.624;2023-07-24T00:18:22;4.82;;;3.78;;
73120;SDS011;61307;49.628;-1.624;2023-07-24T00:20:49;5.68;;;3.17;;
73120;SDS011;61307;49.628;-1.624;2023-07-24T00:23:16;6.15;;;3.72;;
73120;SDS011;61307;49.628;-1.624;2023-07-24T00:25:44;7.32;;;3.65;;
73120;SDS011;61307;49.628;-1.624;2023-07-24T00:28:11;5.25;;;3.40;;
73120;SDS011;61307;49.628;-1.624;2023-07-24T00:30:38;5.63;;;3.50;;
73120;SDS011;61307;49.628;-1.624;2023-07-24T00:33:06;4.50;;;3.38;;
73120;SDS011;61307;49.628;-1.624;2023-07-24T00:35:34;6.28;;;3.70;;
73120;SDS011;61307;49.628;-1.624;2023-07-24T00:38:02;5.38;;;3.33;;
73120;SDS011;61307;49.628;-1.624;2023-07-24T00:40:29;6.13;;;3.47;;
73120;SDS011;61307;49.628;-1.624;2023-07-24T00:42:56;6.47;;;3.40;;
73120;SDS011;61307;49.628;-1.624;2023-07-24T00:45:24;4.70;;;3.25;;
73120;SDS011;61307;49.628;-1.624;2023-07-24T00:47:51;6.25;;;3.78;;
73120;SDS011;61307;49.628;-1.624;2023-07-24T00:50:19;6.50;;;3.35;;
73120;SDS011;61307;49.628;-1.624;2023-07-24T00:52:48;5.88;;;3.67;;
73120;SDS011;61307;49.628;-1.624;2023-07-24T00:55:15;5.05;;;3.45;;
73120;SDS011;61307;49.628;-1.624;2023-07-24T00:57:43;10.00;;;3.60;;
73120;SDS011;61307;49.628;-1.624;2023-07-24T01:00:11;8.10;;;3.67;;
73120;SDS011;61307;49.628;-1.624;2023-07-24T01:02:39;7.40;;;3.38;;
73120;SDS011;61307;49.628;-1.624;2023-07-24T01:05:06;4.97;;;2.97;;
73120;SDS011;61307;49.628;-1.624;2023-07-24T01:07:35;5.25;;;3.30;;
73120;SDS011;61307;49.628;-1.624;2023-07-24T01:10:04;6.35;;;3.38;;
73120;SDS011;61307;49.628;-1.624;2023-07-24T01:12:35;5.93;;;3.65;;
73120;SDS011;61307;49.628;-1.624;2023-07-24T01:15:06;6.25;;;3.70;;
73120;SDS011;61307;49.628;-1.624;2023-07-24T01:17:41;5.22;;;3.40;;
73120;SDS011;61307;49.628;-1.624;2023-07-24T01:20:13;5.05;;;3.03;;
73120;SDS011;61307;49.628;-1.624;2023-07-24T01:22:47;6.22;;;3.13;;
73120;SDS011;61307;49.628;-1.624;2023-07-24T01:25:31;6.53;;;3.15;;
73120;SDS011;61307;49.628;-1.624;2023-07-24T01:28:05;5.13;;;3.22;;
73120;SDS011;61307;49.628;-1.624;2023-07-24T01:30:33;6.63;;;3.03;;
73120;SDS011;61307;49.628;-1.624;2023-07-24T01:33:01;4.90;;;3.38;;
73120;SDS011;61307;49.628;-1.624;2023-07-24T01:35:28;5.53;;;3.00;;
73120;SDS011;61307;49.628;-1.624;2023-07-24T01:37:58;9.13;;;3.75;;
73120;SDS011;61307;49.628;-1.624;2023-07-24T01:40:28;5.90;;;2.97;;
73120;SDS011;61307;49.628;-1.624;2023-07-24T01:42:57;5.25;;;3.03;;
73120;SDS011;61307;49.628;-1.624;2023-07-24T01:45:26;6.90;;;3.50;;
73120;SDS011;61307;49.628;-1.624;2023-07-24T01:47:54;5.68;;;2.80;;
73120;SDS011;61307;49.628;-1.624;2023-07-24T01:50:21;5.18;;;2.88;;
73120;SDS011;61307;49.628;-1.624;2023-07-24T01:52:48;5.93;;;2.83;;
73120;SDS011;61307;49.628;-1.624;2023-07-24T01:55:15;5.53;;;3.30;;
73120;SDS011;61307;49.628;-1.624;2023-07-24T01:57:43;4.95;;;2.88;;
73120;SDS011;61307;49.628;-1.624;2023-07-24T02:00:11;3.65;;;2.80;;
73120;SDS011;61307;49.628;-1.624;2023-07-24T02:02:40;4.70;;;3.05;;
73120;SDS011;61307;49.628;-1.624;2023-07-24T02:05:08;5.00;;;2.83;;
73120;SDS011;61307;49.628;-1.624;2023-07-24T02:08:07;6.47;;;2.58;;
73120;SDS011;61307;49.628;-1.624;2023-07-24T02:10:36;4.95;;;2.63;;
73120;SDS011;61307;49.628;-1.624;2023-07-24T02:13:04;5.50;;;2.78;;
73120;SDS011;61307;49.628;-1.624;2023-07-24T02:15:32;4.90;;;2.72;;
73120;SDS011;61307;49.628;-1.624;2023-07-24T02:18:01;5.57;;;2.60;;
73120;SDS011;61307;49.628;-1.624;2023-07-24T02:20:28;7.20;;;2.92;;
73120;SDS011;61307;49.628;-1.624;2023-07-24T02:22:56;4.38;;;2.63;;
73120;SDS011;61307;49.628;-1.624;2023-07-24T02:25:23;5.35;;;2.65;;
73120;SDS011;61307;49.628;-1.624;2023-07-24T02:27:51;5.03;;;2.50;;
73120;SDS011;61307;49.628;-1.624;2023-07-24T02:30:18;4.93;;;2.50;;
73120;SDS011;61307;49.628;-1.624;2023-07-24T02:32:45;3.85;;;2.45;;
73120;SDS011;61307;49.628;-1.624;2023-07-24T02:35:14;4.20;;;2.60;;
73120;SDS011;61307;49.628;-1.624;2023-07-24T02:37:43;6.38;;;2.58;;
73120;SDS011;61307;49.628;-1.624;2023-07-24T02:40:11;3.45;;;2.40;;
73120;SDS011;61307;49.628;-1.624;2023-07-24T02:42:39;6.75;;;2.33;;
73120;SDS011;61307;49.628;-1.624;2023-07-24T02:45:06;3.75;;;2.50;;
73120;SDS011;61307;49.628;-1.624;2023-07-24T02:47:36;3.58;;;2.30;;
73120;SDS011;61307;49.628;-1.624;2023-07-24T02:50:04;6.28;;;2.60;;
73120;SDS011;61307;49.628;-1.624;2023-07-24T02:52:33;3.65;;;2.65;;
73120;SDS011;61307;49.628;-1.624;2023-07-24T02:55:00;4.28;;;2.47;;
73120;SDS011;61307;49.628;-1.624;2023-07-24T02:57:27;3.30;;;2.25;;
73120;SDS011;61307;49.628;-1.624;2023-07-24T02:59:54;4.82;;;2.75;;
73120;SDS011;61307;49.628;-1.624;2023-07-24T03:02:22;5.18;;;2.53;;
73120;SDS011;61307;49.628;-1.624;2023-07-24T03:04:49;3.85;;;2.40;;
73120;SDS011;61307;49.628;-1.624;2023-07-24T03:07:16;4.78;;;2.28;;
73120;SDS011;61307;49.628;-1.624;2023-07-24T03:09:45;4.68;;;2.33;;
73120;SDS011;61307;49.628;-1.624;2023-07-24T03:12:12;3.35;;;2.10;;
73120;SDS011;61307;49.628;-1.624;2023-07-24T03:14:40;4.95;;;2.33;;
73120;SDS011;61307;49.628;-1.624;2023-07-24T03:17:07;3.67;;;2.30;;
73120;SDS011;61307;49.628;-1.624;2023-07-24T03:19:34;5.40;;;2.30;;
73120;SDS011;61307;49.628;-1.624;2023-07-24T03:22:02;5.25;;;2.15;;
73120;SDS011;61307;49.628;-1.624;2023-07-24T03:24:29;3.88;;;2.13;;
73120;SDS011;61307;49.628;-1.624;2023-07-24T03:26:58;3.90;;;2.58;;
73120;SDS011;61307;49.628;-1.624;2023-07-24T03:29:25;6.45;;;2.28;;
73120;SDS011;61307;49.628;-1.624;2023-07-24T03:31:53;6.95;;;2.47;;
73120;SDS011;61307;49.628;-1.624;2023-07-24T03:34:20;3.75;;;2.30;;
73120;SDS011;61307;49.628;-1.624;2023-07-24T03:36:47;4.07;;;2.42;;
73120;SDS011;61307;49.628;-1.624;2023-07-24T03:39:15;3.67;;;2.00;;
73120;SDS011;61307;49.628;-1.624;2023-07-24T03:41:42;3.10;;;2.00;;
73120;SDS011;61307;49.628;-1.624;2023-07-24T03:44:11;3.00;;;1.88;;
73120;SDS011;61307;49.628;-1.624;2023-07-24T03:46:38;4.45;;;2.00;;
73120;SDS011;61307;49.628;-1.624;2023-07-24T03:49:06;2.95;;;1.98;;
73120;SDS011;61307;49.628;-1.624;2023-07-24T03:51:33;4.57;;;2.10;;
73120;SDS011;61307;49.628;-1.624;2023-07-24T03:54:00;4.43;;;2.00;;
73120;SDS011;61307;49.628;-1.624;2023-07-24T03:56:28;4.80;;;2.40;;
73120;SDS011;61307;49.628;-1.624;2023-07-24T03:58:55;4.07;;;2.30;;
73120;SDS011;61307;49.628;-1.624;2023-07-24T04:01:23;4.63;;;1.90;;
73120;SDS011;61307;49.628;-1.624;2023-07-24T04:03:51;4.53;;;2.03;;
73120;SDS011;61307;49.628;-1.624;2023-07-24T04:06:18;5.90;;;1.98;;
73120;SDS011;61307;49.628;-1.624;2023-07-24T04:08:46;3.13;;;2.00;;
73120;SDS011;61307;49.628;-1.624;2023-07-24T04:11:13;3.90;;;1.98;;
73120;SDS011;61307;49.628;-1.624;2023-07-24T04:13:41;4.60;;;1.77;;
73120;SDS011;61307;49.628;-1.624;2023-07-24T04:16:08;4.82;;;1.90;;
73120;SDS011;61307;49.628;-1.624;2023-07-24T04:18:37;5.75;;;1.90;;
73120;SDS011;61307;49.628;-1.624;2023-07-24T04:24:26;2.88;;;1.80;;
73120;SDS011;61307;49.628;-1.624;2023-07-24T04:26:53;3.83;;;2.00;;
73120;SDS011;61307;49.628;-1.624;2023-07-24T04:29:21;3.08;;;1.67;;
73120;SDS011;61307;49.628;-1.624;2023-07-24T04:31:51;2.70;;;1.80;;
73120;SDS011;61307;49.628;-1.624;2023-07-24T04:34:19;3.35;;;1.75;;
73120;SDS011;61307;49.628;-1.624;2023-07-24T04:36:47;5.32;;;1.73;;
73120;SDS011;61307;49.628;-1.624;2023-07-24T04:39:28;3.72;;;1.77;;
73120;SDS011;61307;49.628;-1.624;2023-07-24T04:41:55;2.95;;;1.80;;
73120;SDS011;61307;49.628;-1.624;2023-07-24T04:44:22;3.47;;;1.70;;
73120;SDS011;61307;49.628;-1.624;2023-07-24T04:46:50;3.40;;;2.00;;
73120;SDS011;61307;49.628;-1.624;2023-07-24T04:49:17;3.65;;;1.70;;
73120;SDS011;61307;49.628;-1.624;2023-07-24T04:51:46;3.63;;;1.77;;
73120;SDS011;61307;49.628;-1.624;2023-07-24T04:54:13;4.30;;;1.90;;
73120;SDS011;61307;49.628;-1.624;2023-07-24T04:56:41;2.25;;;1.92;;
73120;SDS011;61307;49.628;-1.624;2023-07-24T04:59:08;3.28;;;1.73;;
73120;SDS011;61307;49.628;-1.624;2023-07-24T05:01:35;4.28;;;1.83;;
73120;SDS011;61307;49.628;-1.624;2023-07-24T05:04:02;3.60;;;1.60;;
73120;SDS011;61307;49.628;-1.624;2023-07-24T05:06:31;4.65;;;1.92;;
73120;SDS011;61307;49.628;-1.624;2023-07-24T05:09:00;4.45;;;2.00;;
73120;SDS011;61307;49.628;-1.624;2023-07-24T05:11:28;3.30;;;1.90;;
73120;SDS011;61307;49.628;-1.624;2023-07-24T05:13:55;2.85;;;1.60;;
73120;SDS011;61307;49.628;-1.624;2023-07-24T05:16:22;2.65;;;1.70;;
73120;SDS011;61307;49.628;-1.624;2023-07-24T05:18:50;4.85;;;1.80;;
73120;SDS011;61307;49.628;-1.624;2023-07-24T05:21:17;7.47;;;2.17;;
73120;SDS011;61307;49.628;-1.624;2023-07-24T05:23:46;3.13;;;2.00;;
73120;SDS011;61307;49.628;-1.624;2023-07-24T05:26:13;2.70;;;1.67;;
73120;SDS011;61307;49.628;-1.624;2023-07-24T05:28:41;3.88;;;1.85;;
73120;SDS011;61307;49.628;-1.624;2023-07-24T05:31:08;4.13;;;1.75;;
73120;SDS011;61307;49.628;-1.624;2023-07-24T05:33:35;3.03;;;1.55;;
73120;SDS011;61307;49.628;-1.624;2023-07-24T05:36:03;1.88;;;1.52;;
73120;SDS011;61307;49.628;-1.624;2023-07-24T05:38:30;2.55;;;1.50;;
73120;SDS011;61307;49.628;-1.624;2023-07-24T05:41:00;3.80;;;1.90;;
73120;SDS011;61307;49.628;-1.624;2023-07-24T05:43:29;2.28;;;1.60;;
73120;SDS011;61307;49.628;-1.624;2023-07-24T05:45:57;3.13;;;2.13;;
73120;SDS011;61307;49.628;-1.624;2023-07-24T05:48:28;2.63;;;1.90;;
73120;SDS011;61307;49.628;-1.624;2023-07-24T05:50:55;2.88;;;1.88;;
73120;SDS011;61307;49.628;-1.624;2023-07-24T05:53:22;2.63;;;1.70;;
73120;SDS011;61307;49.628;-1.624;2023-07-24T05:55:56;4.28;;;1.73;;
73120;SDS011;61307;49.628;-1.624;2023-07-24T05:58:26;3.45;;;1.80;;
73120;SDS011;61307;49.628;-1.624;2023-07-24T06:00:53;5.07;;;1.80;;
73120;SDS011;61307;49.628;-1.624;2023-07-24T06:03:21;3.42;;;1.65;;
73120;SDS011;61307;49.628;-1.624;2023-07-24T06:05:51;3.58;;;1.77;;
73120;SDS011;61307;49.628;-1.624;2023-07-24T06:08:19;2.45;;;1.40;;
73120;SDS011;61307;49.628;-1.624;2023-07-24T06:10:46;2.78;;;1.67;;
73120;SDS011;61307;49.628;-1.624;2023-07-24T06:13:14;3.15;;;1.65;;
73120;SDS011;61307;49.628;-1.624;2023-07-24T06:15:43;3.97;;;1.83;;
73120;SDS011;61307;49.628;-1.624;2023-07-24T06:18:10;4.90;;;1.75;;
73120;SDS011;61307;49.628;-1.624;2023-07-24T06:20:38;2.50;;;1.70;;
73120;SDS011;61307;49.628;-1.624;2023-07-24T06:23:05;6.95;;;1.60;;
73120;SDS011;61307;49.628;-1.624;2023-07-24T06:25:33;3.35;;;1.90;;
73120;SDS011;61307;49.628;-1.624;2023-07-24T06:28:00;2.38;;;1.63;;
73120;SDS011;61307;49.628;-1.624;2023-07-24T06:30:27;3.60;;;1.80;;
73120;SDS011;61307;49.628;-1.624;2023-07-24T06:32:56;3.33;;;1.83;;
73120;SDS011;61307;49.628;-1.624;2023-07-24T06:38:46;3.00;;;1.80;;
73120;SDS011;61307;49.628;-1.624;2023-07-24T06:41:14;2.92;;;1.73;;
73120;SDS011;61307;49.628;-1.624;2023-07-24T06:43:41;3.22;;;1.85;;
73120;SDS011;61307;49.628;-1.624;2023-07-24T06:46:08;3.08;;;1.73;;
73120;SDS011;61307;49.628;-1.624;2023-07-24T06:48:37;4.75;;;1.60;;
73120;SDS011;61307;49.628;-1.624;2023-07-24T06:51:04;3.47;;;1.70;;
73120;SDS011;61307;49.628;-1.624;2023-07-24T06:53:32;3.92;;;1.77;;
73120;SDS011;61307;49.628;-1.624;2023-07-24T06:55:59;2.92;;;1.60;;
73120;SDS011;61307;49.628;-1.624;2023-07-24T06:58:27;2.63;;;1.50;;
73120;SDS011;61307;49.628;-1.624;2023-07-24T07:00:54;3.15;;;1.83;;
73120;SDS011;61307;49.628;-1.624;2023-07-24T07:03:22;3.05;;;1.73;;
73120;SDS011;61307;49.628;-1.624;2023-07-24T07:05:50;2.00;;;1.70;;
73120;SDS011;61307;49.628;-1.624;2023-07-24T07:08:18;2.35;;;1.70;;
73120;SDS011;61307;49.628;-1.624;2023-07-24T07:10:45;3.67;;;1.92;;
73120;SDS011;61307;49.628;-1.624;2023-07-24T07:13:13;3.05;;;2.03;;
73120;SDS011;61307;49.628;-1.624;2023-07-24T07:15:42;5.07;;;1.73;;
73120;SDS011;61307;49.628;-1.624;2023-07-24T07:18:09;3.78;;;1.75;;
73120;SDS011;61307;49.628;-1.624;2023-07-24T07:20:44;2.88;;;1.70;;
73120;SDS011;61307;49.628;-1.624;2023-07-24T07:23:14;4.10;;;1.80;;
73120;SDS011;61307;49.628;-1.624;2023-07-24T07:25:42;6.22;;;1.92;;
73120;SDS011;61307;49.628;-1.624;2023-07-24T07:28:10;9.77;;;1.95;;
73120;SDS011;61307;49.628;-1.624;2023-07-24T07:30:37;7.90;;;2.05;;
73120;SDS011;61307;49.628;-1.624;2023-07-24T07:33:06;2.35;;;1.55;;
73120;SDS011;61307;49.628;-1.624;2023-07-24T07:35:36;5.68;;;1.92;;
73120;SDS011;61307;49.628;-1.624;2023-07-24T07:38:19;4.03;;;2.00;;
73120;SDS011;61307;49.628;-1.624;2023-07-24T07:40:47;3.78;;;1.88;;
73120;SDS011;61307;49.628;-1.624;2023-07-24T07:43:15;3.58;;;1.95;;
73120;SDS011;61307;49.628;-1.624;2023-07-24T07:45:43;4.13;;;1.80;;
73120;SDS011;61307;49.628;-1.624;2023-07-24T07:48:10;3.33;;;1.88;;
73120;SDS011;61307;49.628;-1.624;2023-07-24T07:50:37;4.63;;;2.42;;
73120;SDS011;61307;49.628;-1.624;2023-07-24T07:53:04;2.85;;;1.60;;
73120;SDS011;61307;49.628;-1.624;2023-07-24T07:55:33;5.88;;;2.20;;
73120;SDS011;61307;49.628;-1.624;2023-07-24T07:58:00;6.45;;;2.03;;
73120;SDS011;61307;49.628;-1.624;2023-07-24T08:00:28;4.35;;;2.22;;
73120;SDS011;61307;49.628;-1.624;2023-07-24T08:02:55;3.17;;;1.80;;
73120;SDS011;61307;49.628;-1.624;2023-07-24T08:05:22;7.18;;;1.77;;
73120;SDS011;61307;49.628;-1.624;2023-07-24T08:07:50;8.93;;;1.92;;
73120;SDS011;61307;49.628;-1.624;2023-07-24T08:13:20;5.95;;;1.90;;
73120;SDS011;61307;49.628;-1.624;2023-07-24T08:15:48;3.97;;;1.98;;
73120;SDS011;61307;49.628;-1.624;2023-07-24T08:18:16;4.97;;;2.15;;
73120;SDS011;61307;49.628;-1.624;2023-07-24T08:20:43;3.33;;;1.83;;
73120;SDS011;61307;49.628;-1.624;2023-07-24T08:23:10;4.45;;;1.88;;
73120;SDS011;61307;49.628;-1.624;2023-07-24T08:25:37;2.58;;;1.77;;
73120;SDS011;61307;49.628;-1.624;2023-07-24T08:28:06;2.97;;;1.75;;
73120;SDS011;61307;49.628;-1.624;2023-07-24T08:30:33;4.25;;;1.77;;
73120;SDS011;61307;49.628;-1.624;2023-07-24T08:33:00;3.58;;;1.73;;
73120;SDS011;61307;49.628;-1.624;2023-07-24T08:35:29;5.70;;;1.60;;
73120;SDS011;61307;49.628;-1.624;2023-07-24T08:37:56;2.78;;;1.70;;
73120;SDS011;61307;49.628;-1.624;2023-07-24T08:40:23;5.93;;;1.90;;
73120;SDS011;61307;49.628;-1.624;2023-07-24T08:42:51;3.25;;;1.60;;
73120;SDS011;61307;49.628;-1.624;2023-07-24T08:45:19;2.47;;;1.63;;
73120;SDS011;61307;49.628;-1.624;2023-07-24T08:47:47;2.97;;;1.88;;
73120;SDS011;61307;49.628;-1.624;2023-07-24T08:50:14;2.78;;;1.98;;
73120;SDS011;61307;49.628;-1.624;2023-07-24T08:52:44;3.50;;;1.63;;
73120;SDS011;61307;49.628;-1.624;2023-07-24T08:55:12;4.15;;;2.22;;
73120;SDS011;61307;49.628;-1.624;2023-07-24T08:57:39;7.88;;;2.13;;
73120;SDS011;61307;49.628;-1.624;2023-07-24T09:00:08;3.97;;;2.30;;
73120;SDS011;61307;49.628;-1.624;2023-07-24T09:02:36;2.15;;;1.75;;
73120;SDS011;61307;49.628;-1.624;2023-07-24T09:05:03;2.67;;;1.60;;
73120;SDS011;61307;49.628;-1.624;2023-07-24T09:07:31;2.63;;;1.80;;
73120;SDS011;61307;49.628;-1.624;2023-07-24T09:10:00;6.50;;;1.70;;
73120;SDS011;61307;49.628;-1.624;2023-07-24T09:12:27;5.13;;;2.00;;
73120;SDS011;61307;49.628;-1.624;2023-07-24T09:15:01;5.68;;;1.85;;
73120;SDS011;61307;49.628;-1.624;2023-07-24T09:17:31;3.28;;;1.88;;
73120;SDS011;61307;49.628;-1.624;2023-07-24T09:19:58;2.75;;;1.77;;
73120;SDS011;61307;49.628;-1.624;2023-07-24T09:22:26;3.38;;;1.60;;
73120;SDS011;61307;49.628;-1.624;2023-07-24T09:24:54;3.25;;;1.80;;
73120;SDS011;61307;49.628;-1.624;2023-07-24T09:30:22;3.85;;;1.80;;
73120;SDS011;61307;49.628;-1.624;2023-07-24T09:32:57;3.97;;;2.03;;
73120;SDS011;61307;49.628;-1.624;2023-07-24T09:35:24;6.22;;;1.80;;
73120;SDS011;61307;49.628;-1.624;2023-07-24T09:38:01;3.30;;;1.98;;
73120;SDS011;61307;49.628;-1.624;2023-07-24T09:40:37;3.63;;;1.77;;
73120;SDS011;61307;49.628;-1.624;2023-07-24T09:43:15;4.03;;;1.80;;
73120;SDS011;61307;49.628;-1.624;2023-07-24T09:45:43;8.35;;;2.08;;
73120;SDS011;61307;49.628;-1.624;2023-07-24T09:48:13;3.35;;;1.73;;
73120;SDS011;61307;49.628;-1.624;2023-07-24T09:50:41;3.75;;;1.90;;
73120;SDS011;61307;49.628;-1.624;2023-07-24T09:53:12;3.47;;;1.73;;
73120;SDS011;61307;49.628;-1.624;2023-07-24T09:55:58;3.95;;;2.08;;
73120;SDS011;61307;49.628;-1.624;2023-07-24T09:58:26;6.47;;;2.22;;
73120;SDS011;61307;49.628;-1.624;2023-07-24T10:00:53;4.10;;;1.70;;
73120;SDS011;61307;49.628;-1.624;2023-07-24T10:03:25;12.25;;;7.60;;
73120;SDS011;61307;49.628;-1.624;2023-07-24T10:05:52;30.77;;;20.80;;
73120;SDS011;61307;49.628;-1.624;2023-07-24T10:08:20;16.48;;;13.43;;
73120;SDS011;61307;49.628;-1.624;2023-07-24T10:10:49;21.75;;;16.33;;
73120;SDS011;61307;49.628;-1.624;2023-07-24T10:13:20;33.03;;;28.02;;
73120;SDS011;61307;49.628;-1.624;2023-07-24T10:15:51;24.35;;;21.67;;
73120;SDS011;61307;49.628;-1.624;2023-07-24T10:18:25;22.58;;;19.52;;
73120;SDS011;61307;49.628;-1.624;2023-07-24T10:21:27;20.08;;;16.05;;
73120;SDS011;61307;49.628;-1.624;2023-07-24T10:23:54;22.15;;;15.88;;
73120;SDS011;61307;49.628;-1.624;2023-07-24T10:29:58;16.13;;;13.13;;
73120;SDS011;61307;49.628;-1.624;2023-07-24T10:32:26;15.50;;;12.95;;
73120;SDS011;61307;49.628;-1.624;2023-07-24T10:34:57;12.85;;;11.18;;
73120;SDS011;61307;49.628;-1.624;2023-07-24T10:37:33;12.07;;;9.52;;
73120;SDS011;61307;49.628;-1.624;2023-07-24T10:40:01;12.27;;;9.00;;
73120;SDS011;61307;49.628;-1.624;2023-07-24T10:42:30;10.80;;;8.88;;
73120;SDS011;61307;49.628;-1.624;2023-07-24T10:45:05;9.55;;;8.27;;
73120;SDS011;61307;49.628;-1.624;2023-07-24T10:47:33;9.93;;;8.18;;
73120;SDS011;61307;49.628;-1.624;2023-07-24T10:50:00;9.85;;;7.90;;
73120;SDS011;61307;49.628;-1.624;2023-07-24T10:52:29;10.23;;;7.78;;
73120;SDS011;61307;49.628;-1.624;2023-07-24T10:55:01;8.65;;;6.82;;
73120;SDS011;61307;49.628;-1.624;2023-07-24T10:57:28;9.13;;;7.20;;
73120;SDS011;61307;49.628;-1.624;2023-07-24T10:59:57;8.50;;;6.00;;
73120;SDS011;61307;49.628;-1.624;2023-07-24T11:05:20;8.10;;;5.45;;
73120;SDS011;61307;49.628;-1.624;2023-07-24T11:07:50;7.32;;;5.43;;
73120;SDS011;61307;49.628;-1.624;2023-07-24T11:10:20;10.75;;;6.13;;
73120;SDS011;61307;49.628;-1.624;2023-07-24T11:12:48;7.03;;;5.22;;
73120;SDS011;61307;49.628;-1.624;2023-07-24T11:15:25;7.95;;;4.95;;
73120;SDS011;61307;49.628;-1.624;2023-07-24T11:17:55;7.05;;;4.70;;
73120;SDS011;61307;49.628;-1.624;2023-07-24T11:20:23;5.38;;;4.38;;
73120;SDS011;61307;49.628;-1.624;2023-07-24T11:22:50;5.15;;;4.20;;
73120;SDS011;61307;49.628;-1.624;2023-07-24T11:25:18;6.20;;;4.57;;
73120;SDS011;61307;49.628;-1.624;2023-07-24T11:27:46;6.65;;;4.38;;
73120;SDS011;61307;49.628;-1.624;2023-07-24T11:30:18;5.20;;;4.00;;
73120;SDS011;61307;49.628;-1.624;2023-07-24T11:32:47;6.60;;;3.80;;
73120;SDS011;61307;49.628;-1.624;2023-07-24T11:35:16;5.90;;;3.72;;
73120;SDS011;61307;49.628;-1.624;2023-07-24T11:37:43;6.60;;;3.60;;
73120;SDS011;61307;49.628;-1.624;2023-07-24T11:40:11;6.55;;;3.90;;
73120;SDS011;61307;49.628;-1.624;2023-07-24T11:42:43;4.28;;;3.38;;
73120;SDS011;61307;49.628;-1.624;2023-07-24T11:45:21;6.10;;;3.58;;
73120;SDS011;61307;49.628;-1.624;2023-07-24T11:48:03;4.47;;;3.30;;
73120;SDS011;61307;49.628;-1.624;2023-07-24T11:53:39;5.63;;;3.33;;
73120;SDS011;61307;49.628;-1.624;2023-07-24T11:56:13;4.75;;;3.30;;
73120;SDS011;61307;49.628;-1.624;2023-07-24T11:58:42;9.32;;;3.72;;
73120;SDS011;61307;49.628;-1.624;2023-07-24T12:01:10;14.05;;;3.28;;
73120;SDS011;61307;49.628;-1.624;2023-07-24T12:03:39;5.43;;;3.28;;
73120;SDS011;61307;49.628;-1.624;2023-07-24T12:06:22;4.93;;;2.92;;
73120;SDS011;61307;49.628;-1.624;2023-07-24T12:12:38;5.03;;;2.80;;
73120;SDS011;61307;49.628;-1.624;2023-07-24T12:17:56;6.15;;;2.95;;
73120;SDS011;61307;49.628;-1.624;2023-07-24T12:20:24;4.97;;;3.10;;
73120;SDS011;61307;49.628;-1.624;2023-07-24T12:22:59;3.95;;;2.60;;
73120;SDS011;61307;49.628;-1.624;2023-07-24T12:25:38;9.30;;;2.90;;
73120;SDS011;61307;49.628;-1.624;2023-07-24T12:28:08;4.30;;;2.50;;
73120;SDS011;61307;49.628;-1.624;2023-07-24T12:30:40;5.30;;;2.80;;
73120;SDS011;61307;49.628;-1.624;2023-07-24T12:33:10;3.72;;;2.55;;
73120;SDS011;61307;49.628;-1.624;2023-07-24T12:35:40;4.95;;;2.88;;
73120;SDS011;61307;49.628;-1.624;2023-07-24T12:38:09;3.92;;;2.75;;
73120;SDS011;61307;49.628;-1.624;2023-07-24T12:40:36;4.05;;;2.65;;
73120;SDS011;61307;49.628;-1.624;2023-07-24T12:43:03;4.72;;;2.67;;
73120;SDS011;61307;49.628;-1.624;2023-07-24T12:45:31;3.53;;;2.55;;
73120;SDS011;61307;49.628;-1.624;2023-07-24T12:48:00;5.90;;;3.00;;
73120;SDS011;61307;49.628;-1.624;2023-07-24T12:51:20;4.95;;;2.67;;
73120;SDS011;61307;49.628;-1.624;2023-07-24T12:56:35;5.25;;;2.70;;
73120;SDS011;61307;49.628;-1.624;2023-07-24T12:59:06;7.15;;;2.70;;
73120;SDS011;61307;49.628;-1.624;2023-07-24T13:02:12;8.32;;;2.78;;
73120;SDS011;61307;49.628;-1.624;2023-07-24T13:04:49;7.30;;;2.72;;
73120;SDS011;61307;49.628;-1.624;2023-07-24T13:18:16;4.80;;;2.92;;
73120;SDS011;61307;49.628;-1.624;2023-07-24T13:23:35;5.30;;;3.15;;
73120;SDS011;61307;49.628;-1.624;2023-07-24T13:26:42;17.63;;;13.50;;
73120;SDS011;61307;49.628;-1.624;2023-07-24T13:29:16;10.15;;;3.42;;
73120;SDS011;61307;49.628;-1.624;2023-07-24T13:32:14;8.15;;;6.03;;
73120;SDS011;61307;49.628;-1.624;2023-07-24T13:38:24;7.57;;;6.20;;
73120;SDS011;61307;49.628;-1.624;2023-07-24T13:41:04;8.00;;;4.30;;
73120;SDS011;61307;49.628;-1.624;2023-07-24T13:43:47;6.28;;;5.38;;
73120;SDS011;61307;49.628;-1.624;2023-07-24T13:46:40;7.90;;;4.15;;
73120;SDS011;61307;49.628;-1.624;2023-07-24T13:49:07;6.05;;;3.85;;
73120;SDS011;61307;49.628;-1.624;2023-07-24T13:51:36;6.40;;;4.10;;
73120;SDS011;61307;49.628;-1.624;2023-07-24T13:54:05;6.50;;;3.78;;
73120;SDS011;61307;49.628;-1.624;2023-07-24T13:56:32;6.10;;;3.95;;
73120;SDS011;61307;49.628;-1.624;2023-07-24T13:59:01;6.68;;;3.60;;
73120;SDS011;61307;49.628;-1.624;2023-07-24T14:01:28;5.50;;;3.90;;
73120;SDS011;61307;49.628;-1.624;2023-07-24T14:03:56;9.63;;;3.60;;
73120;SDS011;61307;49.628;-1.624;2023-07-24T14:06:27;48.05;;;42.80;;
73120;SDS011;61307;49.628;-1.624;2023-07-24T14:08:57;10.13;;;5.40;;
73120;SDS011;61307;49.628;-1.624;2023-07-24T14:11:26;7.50;;;6.28;;
73120;SDS011;61307;49.628;-1.624;2023-07-24T14:13:54;10.05;;;6.20;;
73120;SDS011;61307;49.628;-1.624;2023-07-24T14:20:00;10.07;;;5.07;;
73120;SDS011;61307;49.628;-1.624;2023-07-24T14:22:28;7.72;;;4.32;;
73120;SDS011;61307;49.628;-1.624;2023-07-24T14:24:55;9.00;;;4.35;;
73120;SDS011;61307;49.628;-1.624;2023-07-24T14:27:24;6.25;;;3.90;;
73120;SDS011;61307;49.628;-1.624;2023-07-24T14:29:52;13.40;;;4.07;;
73120;SDS011;61307;49.628;-1.624;2023-07-24T14:32:19;5.78;;;3.53;;
73120;SDS011;61307;49.628;-1.624;2023-07-24T14:41:29;6.32;;;3.35;;
73120;SDS011;61307;49.628;-1.624;2023-07-24T14:50:58;6.97;;;3.47;;
73120;SDS011;61307;49.628;-1.624;2023-07-24T14:56:08;6.82;;;3.47;;
73120;SDS011;61307;49.628;-1.624;2023-07-24T14:58:41;6.03;;;3.17;;
73120;SDS011;61307;49.628;-1.624;2023-07-24T15:04:38;6.32;;;3.13;;
73120;SDS011;61307;49.628;-1.624;2023-07-24T15:07:05;3.63;;;3.00;;
73120;SDS011;61307;49.628;-1.624;2023-07-24T15:09:33;11.10;;;3.22;;
73120;SDS011;61307;49.628;-1.624;2023-07-24T15:12:00;5.53;;;2.97;;
73120;SDS011;61307;49.628;-1.624;2023-07-24T15:14:32;6.50;;;3.28;;
73120;SDS011;61307;49.628;-1.624;2023-07-24T15:19:09;7.93;;;3.20;;
73120;SDS011;61307;49.628;-1.624;2023-07-24T15:20:07;7.05;;;3.30;;
73120;SDS011;61307;49.628;-1.624;2023-07-24T15:22:38;4.18;;;2.95;;
73120;SDS011;61307;49.628;-1.624;2023-07-24T15:25:06;5.40;;;3.30;;
73120;SDS011;61307;49.628;-1.624;2023-07-24T15:27:35;4.60;;;2.88;;
73120;SDS011;61307;49.628;-1.624;2023-07-24T15:30:03;4.88;;;3.45;;
73120;SDS011;61307;49.628;-1.624;2023-07-24T15:32:31;4.97;;;3.30;;
73120;SDS011;61307;49.628;-1.624;2023-07-24T15:35:32;2.75;;;2.42;;
73120;SDS011;61307;49.628;-1.624;2023-07-24T15:37:59;6.25;;;3.00;;
73120;SDS011;61307;49.628;-1.624;2023-07-24T15:40:30;3.90;;;3.08;;
73120;SDS011;61307;49.628;-1.624;2023-07-24T15:42:59;5.43;;;2.70;;
73120;SDS011;61307;49.628;-1.624;2023-07-24T15:45:26;4.65;;;2.90;;
73120;SDS011;61307;49.628;-1.624;2023-07-24T15:47:54;5.40;;;2.75;;
73120;SDS011;61307;49.628;-1.624;2023-07-24T15:50:21;5.00;;;3.08;;
73120;SDS011;61307;49.628;-1.624;2023-07-24T15:52:50;3.97;;;3.00;;
73120;SDS011;61307;49.628;-1.624;2023-07-24T15:58:45;6.10;;;2.95;;
73120;SDS011;61307;49.628;-1.624;2023-07-24T16:01:24;6.32;;;2.90;;
73120;SDS011;61307;49.628;-1.624;2023-07-24T16:03:52;3.67;;;2.90;;